createdAt,value
2023-12-05T00:00:09.696Z,14.63
2023-12-05T00:02:43.440Z,14.55
2023-12-05T00:05:12.226Z,11.57
2023-12-05T00:07:41.324Z,11.07
2023-12-05T00:10:09.198Z,11.82
2023-12-05T00:15:06.654Z,12.77
2023-12-05T00:17:35.163Z,12.05
2023-12-05T00:20:03.971Z,10.93
2023-12-05T00:22:31.838Z,9.27
2023-12-05T00:27:27.692Z,11.85
2023-12-05T00:32:24.637Z,9.95
2023-12-05T00:34:52.403Z,22.00
2023-12-05T00:42:15.546Z,13.35
2023-12-05T00:49:39.984Z,9.40
2023-12-05T00:52:07.962Z,12.23
2023-12-05T00:57:04.140Z,11.25
2023-12-05T00:59:32.058Z,11.02
2023-12-05T01:02:37.565Z,12.90
2023-12-05T01:05:05.647Z,13.18
2023-12-05T01:07:33.828Z,9.85
2023-12-05T01:12:29.339Z,12.85
2023-12-05T01:15:00.681Z,10.57
2023-12-05T01:19:57.422Z,10.43
2023-12-05T01:22:25.711Z,9.63
2023-12-05T01:24:56.401Z,12.60
2023-12-05T01:27:24.642Z,10.65
2023-12-05T01:29:52.651Z,10.70
2023-12-05T01:37:16.922Z,11.13
2023-12-05T01:39:44.802Z,11.30
2023-12-05T01:42:12.916Z,8.90
2023-12-05T01:49:37.183Z,8.48
2023-12-05T01:52:05.569Z,9.10
2023-12-05T01:54:34.987Z,15.68
2023-12-05T01:57:03.854Z,9.70
2023-12-05T01:59:31.731Z,7.93
2023-12-05T02:04:27.261Z,8.95
2023-12-05T02:11:51.815Z,10.07
2023-12-05T02:14:20.754Z,8.80
2023-12-05T02:16:52.608Z,10.05
2023-12-05T02:19:35.476Z,7.80
2023-12-05T02:22:07.290Z,7.07
2023-12-05T02:24:41.447Z,10.88
2023-12-05T02:27:14.356Z,9.95
2023-12-05T02:29:53.046Z,8.77
2023-12-05T02:32:21.268Z,7.65
2023-12-05T02:34:49.305Z,9.07
2023-12-05T02:39:47.761Z,13.55
2023-12-05T02:42:16.915Z,11.95
2023-12-05T02:44:47.117Z,11.13
2023-12-05T02:47:18.817Z,7.50
2023-12-05T02:49:46.518Z,9.35
2023-12-05T02:52:22.049Z,9.50
2023-12-05T02:57:18.549Z,20.17
2023-12-05T02:59:46.444Z,11.25
2023-12-05T03:04:44.847Z,9.65
2023-12-05T03:07:12.786Z,8.88
2023-12-05T03:12:08.381Z,12.82
2023-12-05T03:14:36.257Z,10.07
2023-12-05T03:17:04.325Z,7.70
2023-12-05T03:19:32.407Z,12.88
2023-12-05T03:22:02.166Z,9.38
2023-12-05T03:24:30.178Z,8.75
2023-12-05T03:26:57.730Z,9.77
2023-12-05T03:29:25.548Z,9.88
2023-12-05T03:36:48.530Z,12.68
2023-12-05T03:44:13.268Z,9.23
2023-12-05T03:46:41.223Z,19.77
2023-12-05T03:51:36.848Z,22.63
2023-12-05T03:58:59.775Z,12.10
2023-12-05T04:01:29.123Z,12.13
2023-12-05T04:03:57.800Z,9.38
2023-12-05T04:06:25.989Z,8.68
2023-12-05T04:11:30.141Z,6.93
2023-12-05T04:13:57.888Z,35.47
2023-12-05T04:16:26.370Z,10.05
2023-12-05T04:18:56.017Z,10.60
2023-12-05T04:21:23.852Z,8.38
2023-12-05T04:23:51.586Z,6.47
2023-12-05T04:26:19.800Z,11.18
2023-12-05T04:28:47.758Z,9.75
2023-12-05T04:33:43.688Z,8.35
2023-12-05T04:36:14.213Z,9.57
2023-12-05T04:38:41.805Z,9.00
2023-12-05T04:41:09.658Z,9.27
2023-12-05T04:48:32.935Z,7.93
2023-12-05T04:51:00.722Z,9.68
2023-12-05T04:53:29.972Z,10.13
2023-12-05T04:55:57.692Z,9.18
2023-12-05T04:58:25.749Z,9.23
2023-12-05T05:00:55.930Z,16.60
2023-12-05T05:03:24.766Z,10.68
2023-12-05T05:05:52.634Z,11.05
2023-12-05T05:10:51.609Z,13.85
2023-12-05T05:13:19.403Z,11.18
2023-12-05T05:15:47.279Z,13.75
2023-12-05T05:18:15.272Z,19.08
2023-12-05T05:23:12.401Z,9.25
2023-12-05T05:25:42.679Z,9.50
2023-12-05T05:28:12.083Z,11.85
2023-12-05T05:30:40.236Z,9.63
2023-12-05T05:33:08.061Z,14.05
2023-12-05T05:38:03.727Z,10.50
2023-12-05T05:47:57.001Z,10.07
2023-12-05T05:50:24.665Z,12.18
2023-12-05T05:52:52.372Z,23.42
2023-12-05T05:55:20.739Z,10.05
2023-12-05T05:57:48.463Z,14.88
2023-12-05T17:02:15.888Z,26.55
2023-12-05T17:04:44.159Z,21.88
2023-12-05T17:07:12.116Z,25.33
2023-12-05T17:14:35.178Z,19.10
2023-12-05T17:17:05.490Z,23.65
2023-12-05T17:19:35.393Z,21.73
2023-12-05T17:22:03.255Z,22.80
2023-12-05T17:24:30.878Z,22.95
2023-12-05T17:36:50.742Z,26.35
2023-12-05T17:39:19.091Z,27.85
2023-12-05T17:41:47.425Z,27.90
2023-12-05T17:44:15.302Z,32.03
2023-12-05T17:46:43.205Z,32.58
2023-12-05T17:59:02.100Z,37.40
2023-12-05T18:01:29.593Z,39.55
2023-12-05T18:03:57.412Z,45.55
2023-12-05T18:06:25.007Z,26.35
2023-12-05T18:08:52.840Z,32.08
2023-12-05T18:11:20.991Z,34.65
2023-12-05T18:13:48.581Z,33.05
2023-12-05T18:16:18.508Z,33.35
2023-12-05T18:18:50.847Z,41.17
2023-12-05T18:21:18.920Z,32.50
2023-12-05T18:23:46.834Z,37.38
2023-12-05T18:26:15.000Z,37.83
2023-12-05T18:28:42.522Z,41.30
2023-12-05T18:31:09.978Z,42.22
2023-12-05T18:33:38.925Z,36.75
2023-12-05T18:36:07.277Z,27.38
2023-12-05T18:38:36.625Z,36.30
2023-12-05T18:41:04.197Z,32.75
2023-12-05T18:43:32.244Z,32.13
2023-12-05T18:46:00.118Z,30.10
2023-12-05T18:48:27.650Z,34.42
2023-12-05T18:50:56.459Z,36.63
2023-12-05T18:53:24.234Z,36.35
2023-12-05T18:55:51.943Z,40.60
2023-12-05T18:58:19.637Z,46.80
2023-12-05T19:00:47.341Z,43.63
2023-12-05T19:03:14.858Z,45.63
2023-12-05T19:05:42.627Z,43.55
2023-12-05T19:08:11.376Z,45.72
2023-12-05T19:10:38.832Z,50.25
2023-12-05T19:13:06.341Z,50.55
2023-12-05T19:15:34.300Z,49.35
2023-12-05T19:18:02.202Z,49.67
2023-12-05T19:20:31.377Z,46.50
2023-12-05T19:22:58.934Z,53.75
2023-12-05T19:25:27.727Z,54.95
2023-12-05T19:27:55.627Z,53.00
2023-12-05T19:30:23.241Z,49.90
2023-12-05T19:32:51.644Z,52.47
2023-12-05T19:35:19.177Z,45.03
2023-12-05T19:37:46.738Z,47.45
2023-12-05T19:40:14.354Z,47.63
2023-12-05T19:42:45.268Z,51.42
2023-12-05T19:45:12.938Z,49.83
2023-12-05T19:47:40.369Z,52.83
2023-12-05T19:50:10.920Z,48.03
2023-12-05T19:52:38.423Z,42.50
2023-12-05T19:55:06.152Z,46.38
2023-12-05T19:57:33.741Z,46.20
2023-12-05T20:00:02.789Z,58.67
2023-12-05T20:02:32.282Z,56.03
2023-12-05T20:05:00.033Z,49.72
2023-12-05T20:07:27.483Z,49.72
2023-12-05T20:09:57.257Z,54.22
2023-12-05T20:12:24.663Z,50.38
2023-12-05T20:14:52.083Z,52.15
2023-12-05T20:17:21.074Z,43.97
2023-12-05T20:19:48.872Z,44.60
2023-12-05T20:22:17.494Z,44.30
2023-12-05T20:24:44.923Z,43.40
2023-12-05T20:27:12.641Z,50.30
2023-12-05T20:29:40.382Z,36.40
2023-12-05T20:34:37.312Z,40.28
2023-12-05T20:37:05.358Z,39.97
2023-12-05T20:39:36.414Z,42.50
2023-12-05T20:42:04.778Z,38.88
2023-12-05T20:44:32.707Z,41.58
2023-12-05T20:47:00.537Z,31.40
2023-12-05T20:51:58.162Z,34.00
2023-12-05T20:54:26.073Z,26.95
2023-12-05T20:56:53.442Z,31.60
2023-12-05T20:59:20.828Z,35.60
2023-12-05T21:01:48.525Z,34.65
2023-12-05T21:04:16.049Z,40.80
2023-12-05T21:06:50.210Z,31.40
2023-12-05T21:09:20.640Z,35.13
2023-12-05T21:11:48.850Z,40.70
2023-12-05T21:14:16.968Z,42.00
2023-12-05T21:16:45.027Z,37.80
2023-12-05T21:19:13.903Z,44.78
2023-12-05T21:21:42.255Z,39.95
2023-12-05T21:24:09.958Z,47.35
2023-12-05T21:26:38.715Z,39.35
2023-12-05T21:29:06.178Z,44.67
2023-12-05T21:31:33.809Z,47.47
2023-12-05T21:34:01.353Z,46.65
2023-12-05T21:36:28.886Z,42.20
2023-12-05T21:38:58.735Z,41.47
2023-12-05T21:41:27.300Z,40.22
2023-12-05T21:43:56.143Z,42.38
2023-12-05T21:46:23.990Z,40.35
2023-12-05T21:51:18.823Z,32.20
2023-12-05T21:53:46.302Z,34.55
2023-12-05T21:56:13.788Z,36.17
2023-12-05T21:58:41.212Z,38.00
2023-12-05T22:01:11.179Z,45.78
2023-12-05T22:03:39.012Z,44.90
2023-12-05T22:06:06.738Z,34.60
2023-12-05T22:08:34.228Z,48.20
2023-12-05T22:11:01.986Z,42.85
2023-12-05T22:13:30.871Z,42.47
2023-12-05T22:15:58.727Z,48.95
2023-12-05T22:20:54.921Z,40.92
2023-12-05T22:23:22.326Z,55.50
2023-12-05T22:25:49.731Z,47.85
2023-12-05T22:28:18.323Z,47.75
2023-12-05T22:30:45.854Z,47.70
2023-12-05T22:33:13.349Z,37.03
2023-12-05T22:35:43.061Z,45.80
2023-12-05T22:38:11.926Z,41.85
2023-12-05T22:40:39.312Z,44.08
2023-12-05T22:43:06.778Z,43.78
2023-12-05T22:45:34.869Z,48.22
2023-12-05T22:48:02.985Z,50.88
2023-12-05T22:50:30.496Z,49.55
2023-12-05T22:52:57.897Z,49.10
2023-12-05T22:55:26.648Z,53.20
2023-12-05T22:57:54.159Z,44.00
2023-12-05T23:00:25.290Z,54.75
2023-12-05T23:02:55.052Z,48.53
2023-12-05T23:05:22.597Z,58.47
2023-12-05T23:07:50.491Z,58.70
2023-12-05T23:12:47.450Z,65.38
2023-12-05T23:15:15.064Z,45.63
2023-12-05T23:17:42.535Z,50.33
2023-12-05T23:20:10.870Z,58.50
2023-12-05T23:22:38.371Z,55.17
2023-12-05T23:25:06.770Z,58.97
2023-12-05T23:27:34.725Z,54.83
2023-12-05T23:30:03.636Z,53.40
2023-12-05T23:32:31.079Z,51.58
2023-12-05T23:34:58.534Z,60.28
2023-12-05T23:37:25.985Z,53.80
2023-12-05T23:39:53.617Z,46.38
2023-12-05T23:42:21.257Z,55.97
2023-12-05T23:44:48.668Z,55.90
2023-12-05T23:47:18.839Z,54.63
2023-12-05T23:49:46.766Z,50.22
2023-12-05T23:52:14.845Z,60.17
2023-12-05T23:54:43.114Z,46.95
2023-12-05T23:57:10.542Z,59.45
2023-12-05T23:59:38.075Z,56.85
